עמוד ראשי
METAR-TAF:

METAR-TAF

שדות תעופה :

אריקה, צ'ילה

קו רוחב: 18-20S, קו אורך: 070-20W, גובה: 58מטר

תצפית מזג אוויר נוכחית

הדו"ח נערך לפני 1 שעות ו 13דקות, בשעה 00:00 UTC
רוח 8קשר מכיוון דרום
טמפרטורת 17 צלסיוס
לחות 82%
לחץ 1013 hPa
ראות 10 קילומטר או יותר
מעונן בגובה 2000רגל

METAR: SCAR 210000Z 19008KT 9999 OVC020 17/14 Q1013

זמן: 21:13 (01:13 UTC)

תחזית

הדו"ח נערך לפני 2 שעות ו 51דקות, בשעה 22:22 UTC
תחזית בתוקף מ 21 ב 00 UTC עד 21 ב 24 UTC
רוח 4קשר מכיוון דרום
ראות 10 קילומטר או יותר
מעונן בגובה 2500רגל
יעשה מ
21 ב 17 UTC עד 21 ב 19 UTC
רוח 12קשר מכיוון דרום/דרום-מערב
עננים בינוניים בגובה 3000רגל
יעשה מ
21 ב 21 UTC עד 21 ב 23 UTC
רוח 4קשר מכיוון צפון/צפון-מערב
מעונן בגובה 2500רגל

TAF: SCAR 202222Z 2100/2124 18004KT 9999 OVC025 TN17/2106Z TX19/2118Z BECMG 2117/2119 21012KT BKN030 BECMG 2121/2123 34004KT OVC025

תצפיות ותחזיות מזג אוויר לגבי יותר מ- 4,000 שדות תעופה ברחבי העולם. דוחות METAR ו- TAF.

התחנות הזמינות מסומנות בנקודות צהובות ואדומות על גבי המפה.

העבר את העכבר לנקודה הצבעונית על מנת לראות את שם התחנה.

לאחר מכן, לחץ כדי לראות את תוכן ואת תחזיות מזג האוויר.

כדי לשנות את המפה: לחץ על הכפתורים הירוקים עם הפלוס השחור כדי להתקרב; על הכפתור הירוק עם המקף כדי להתרחק; או בחיצים הירוקים למפות סמוכות.


METAR-TAF: